createdAt,value
2023-01-29T00:01:55.929Z,99409.13
2023-01-29T00:04:23.138Z,99413.72
2023-01-29T00:06:49.769Z,99408.50
2023-01-29T00:09:16.363Z,99411.69
2023-01-29T00:11:42.984Z,99408.53
2023-01-29T00:14:09.788Z,99404.34
2023-01-29T00:16:36.398Z,99406.53
2023-01-29T00:19:03.512Z,99411.75
2023-01-29T00:21:31.103Z,99409.28
2023-01-29T00:23:58.175Z,99412.41
2023-01-29T00:26:25.014Z,99414.63
2023-01-29T00:28:51.976Z,99420.75
2023-01-29T00:31:23.382Z,99413.16
2023-01-29T00:33:50.078Z,99401.78
2023-01-29T00:36:18.349Z,99398.72
2023-01-29T00:38:44.950Z,99404.16
2023-01-29T00:41:34.767Z,99399.41
2023-01-29T00:44:20.514Z,99409.44
2023-01-29T00:46:47.102Z,99412.34
2023-01-29T00:49:13.696Z,99407.03
2023-01-29T00:51:40.316Z,99405.25
2023-01-29T00:54:07.179Z,99400.47
2023-01-29T00:56:37.192Z,99406.41
2023-01-29T00:59:04.650Z,99411.59
2023-01-29T01:01:49.980Z,99412.56
2023-01-29T01:04:16.520Z,99407.34
2023-01-29T01:06:43.076Z,99408.13
2023-01-29T01:09:29.539Z,99407.63
2023-01-29T01:11:56.180Z,99406.13
2023-01-29T01:14:22.716Z,99405.13
2023-01-29T01:16:49.543Z,99417.41
2023-01-29T01:19:16.216Z,99405.56
2023-01-29T01:21:48.208Z,99399.81
2023-01-29T01:24:15.392Z,99399.84
2023-01-29T01:26:41.999Z,99404.88
2023-01-29T01:29:09.191Z,99397.06
2023-01-29T01:31:35.854Z,99403.31
2023-01-29T01:34:02.475Z,99402.22
2023-01-29T01:36:31.468Z,99404.09
2023-01-29T01:38:58.623Z,99408.06
2023-01-29T01:41:25.657Z,99407.66
2023-01-29T01:44:00.784Z,99409.44
2023-01-29T01:46:33.750Z,99407.88
2023-01-29T01:49:04.452Z,99395.72
2023-01-29T01:51:32.822Z,99402.59
2023-01-29T01:54:19.145Z,99406.75
2023-01-29T01:56:49.416Z,99399.44
2023-01-29T01:59:18.838Z,99395.31
2023-01-29T02:01:51.227Z,99396.91
2023-01-29T02:04:39.384Z,99391.06
2023-01-29T02:07:26.795Z,99401.03
2023-01-29T02:10:12.489Z,99407.25
2023-01-29T02:12:39.452Z,99408.88
2023-01-29T02:15:07.050Z,99408.25
2023-01-29T02:17:33.593Z,99403.13
2023-01-29T02:20:00.140Z,99407.25
2023-01-29T02:22:56.447Z,99410.88
2023-01-29T02:25:47.994Z,99405.13
2023-01-29T02:28:40.719Z,99401.75
2023-01-29T02:31:31.957Z,99405.97
2023-01-29T02:34:24.628Z,99412.84
2023-01-29T02:37:00.436Z,99405.56
2023-01-29T02:39:37.911Z,99398.94
2023-01-29T02:42:35.874Z,99401.34
2023-01-29T02:45:16.075Z,99402.25
2023-01-29T02:47:48.587Z,99414.50
2023-01-29T02:50:20.080Z,99410.09
2023-01-29T02:52:58.787Z,99400.44
2023-01-29T02:55:38.725Z,99397.91
2023-01-29T02:58:12.082Z,99394.06
2023-01-29T03:00:45.136Z,99391.06
2023-01-29T03:03:21.345Z,99389.25
2023-01-29T03:06:06.497Z,99390.66
2023-01-29T03:08:43.232Z,99400.06
2023-01-29T03:11:15.222Z,99396.09
2023-01-29T03:14:10.456Z,99399.97
2023-01-29T03:16:49.978Z,99399.97
2023-01-29T03:19:20.733Z,99401.00
2023-01-29T03:22:00.396Z,99403.13
2023-01-29T03:25:04.218Z,99399.69
2023-01-29T03:27:56.339Z,99393.31
2023-01-29T03:30:44.425Z,99402.13
2023-01-29T03:34:00.106Z,99403.59
2023-01-29T03:36:39.587Z,99400.25
2023-01-29T03:39:07.426Z,99386.25
2023-01-29T03:41:52.763Z,99391.59
2023-01-29T03:44:30.725Z,99394.94
2023-01-29T03:47:18.459Z,99395.91
2023-01-29T03:49:50.998Z,99404.06
2023-01-29T03:52:23.488Z,99405.53
2023-01-29T03:55:10.594Z,99400.47
2023-01-29T03:57:45.671Z,99400.31
2023-01-29T04:00:22.801Z,99401.84
2023-01-29T04:03:09.813Z,99392.53
2023-01-29T04:05:52.721Z,99401.03
2023-01-29T04:08:29.387Z,99406.47
2023-01-29T04:11:00.224Z,99393.81
2023-01-29T04:13:27.236Z,99406.28
2023-01-29T04:15:56.875Z,99394.31
2023-01-29T04:18:50.828Z,99406.06
2023-01-29T04:21:22.784Z,99412.78
2023-01-29T04:23:49.356Z,99410.59
2023-01-29T04:26:25.301Z,99409.66
2023-01-29T04:29:22.009Z,99413.81
2023-01-29T04:32:34.222Z,99414.22
2023-01-29T04:35:08.950Z,99414.19
2023-01-29T04:37:41.458Z,99415.66
2023-01-29T04:40:19.135Z,99414.81
2023-01-29T04:42:53.478Z,99408.78
2023-01-29T04:45:28.582Z,99405.94
2023-01-29T04:48:00.668Z,99412.47
2023-01-29T04:50:35.740Z,99408.63
2023-01-29T04:53:09.427Z,99401.53
2023-01-29T04:55:43.780Z,99404.50
2023-01-29T04:58:16.823Z,99411.13
2023-01-29T05:00:44.689Z,99410.66
2023-01-29T05:03:14.133Z,99413.72
2023-01-29T05:05:42.935Z,99411.53
2023-01-29T05:08:11.781Z,99411.50
2023-01-29T05:10:38.957Z,99408.03
2023-01-29T05:13:07.948Z,99406.84
2023-01-29T05:15:38.519Z,99410.00
2023-01-29T05:18:08.743Z,99410.81
2023-01-29T05:20:37.844Z,99405.66
2023-01-29T05:23:04.479Z,99403.06
2023-01-29T05:25:32.894Z,99411.91
2023-01-29T05:28:06.420Z,99408.75
2023-01-29T05:30:35.048Z,99416.03
2023-01-29T05:33:02.071Z,99430.03
2023-01-29T05:35:28.777Z,99419.75
2023-01-29T05:37:59.493Z,99409.63
2023-01-29T05:40:26.103Z,99410.22
2023-01-29T05:42:52.684Z,99400.56
2023-01-29T05:45:19.722Z,99404.75
2023-01-29T05:47:46.806Z,99392.19
2023-01-29T05:50:14.283Z,99387.59
2023-01-29T05:52:41.033Z,99372.34
2023-01-29T05:55:09.575Z,99370.56
2023-01-29T05:57:36.212Z,99361.72
2023-01-29T06:00:04.422Z,99367.72
2023-01-29T06:02:39.096Z,99365.16
2023-01-29T06:05:05.837Z,99375.91
2023-01-29T06:07:32.416Z,99380.50
2023-01-29T06:09:58.997Z,99382.22
2023-01-29T06:12:27.153Z,99380.09
2023-01-29T06:14:53.681Z,99382.91
2023-01-29T06:17:20.210Z,99380.75
2023-01-29T06:19:46.766Z,99386.19
2023-01-29T06:22:13.322Z,99380.63
2023-01-29T06:24:39.888Z,99382.00
2023-01-29T06:27:06.905Z,99393.25
2023-01-29T06:29:33.494Z,99390.38
2023-01-29T06:32:00.111Z,99384.75
2023-01-29T06:34:26.776Z,99388.50
2023-01-29T06:36:53.809Z,99391.84
2023-01-29T06:39:20.325Z,99385.94
2023-01-29T06:41:46.950Z,99392.53
2023-01-29T06:44:13.687Z,99393.88
2023-01-29T06:46:40.732Z,99386.91
2023-01-29T06:49:07.340Z,99392.03
2023-01-29T06:51:33.923Z,99394.34
2023-01-29T06:54:00.452Z,99394.06
2023-01-29T06:56:27.006Z,99398.28
2023-01-29T06:58:54.180Z,99408.72
2023-01-29T07:01:36.887Z,99410.75
2023-01-29T07:04:03.835Z,99417.44
2023-01-29T07:06:30.545Z,99410.28
2023-01-29T07:08:57.108Z,99401.59
2023-01-29T07:11:23.728Z,99402.81
2023-01-29T07:13:50.275Z,99396.97
2023-01-29T07:16:17.092Z,99403.06
2023-01-29T07:18:43.705Z,99405.00
2023-01-29T07:21:10.296Z,99406.25
2023-01-29T07:23:37.469Z,99417.22
2023-01-29T07:26:05.434Z,99416.44
2023-01-29T07:28:32.331Z,99421.06
2023-01-29T07:30:59.370Z,99426.63
2023-01-29T07:33:26.256Z,99427.56
2023-01-29T07:35:53.204Z,99424.16
2023-01-29T07:38:19.772Z,99437.63
2023-01-29T07:40:46.784Z,99432.22
2023-01-29T07:43:13.545Z,99431.59
2023-01-29T07:45:40.464Z,99435.97
2023-01-29T07:48:09.461Z,99433.84
2023-01-29T07:50:36.016Z,99438.09
2023-01-29T07:53:02.741Z,99438.09
2023-01-29T07:55:29.803Z,99432.88
2023-01-29T07:57:58.309Z,99445.50
2023-01-29T08:00:25.162Z,99449.41
2023-01-29T08:02:52.374Z,99453.94
2023-01-29T08:05:19.028Z,99439.13
2023-01-29T08:07:49.359Z,99435.00
2023-01-29T08:10:23.865Z,99439.63
2023-01-29T08:12:58.679Z,99439.97
2023-01-29T08:15:25.746Z,99439.19
2023-01-29T08:17:57.956Z,99441.78
2023-01-29T08:20:39.772Z,99450.16
2023-01-29T08:23:09.473Z,99457.56
2023-01-29T08:25:36.182Z,99468.69
2023-01-29T08:28:02.842Z,99458.63
2023-01-29T08:30:31.599Z,99458.22
2023-01-29T08:32:58.364Z,99464.44
2023-01-29T08:35:25.340Z,99466.38
2023-01-29T08:38:02.304Z,99457.84
2023-01-29T08:40:33.827Z,99469.69
2023-01-29T08:43:02.701Z,99466.09
2023-01-29T08:45:30.827Z,99472.03
2023-01-29T08:47:57.423Z,99469.78
2023-01-29T08:50:24.000Z,99472.47
2023-01-29T08:52:50.695Z,99472.66
2023-01-29T08:55:18.735Z,99477.09
2023-01-29T08:57:45.820Z,99476.38
2023-01-29T09:00:13.161Z,99477.31
2023-01-29T09:02:39.794Z,99483.09
2023-01-29T09:05:07.230Z,99472.47
2023-01-29T09:07:34.066Z,99477.41
2023-01-29T09:10:02.874Z,99476.44
2023-01-29T09:12:30.047Z,99485.56
2023-01-29T09:14:56.581Z,99485.16
2023-01-29T09:17:23.201Z,99488.66
2023-01-29T09:19:49.814Z,99483.47
2023-01-29T09:22:16.346Z,99480.81
2023-01-29T09:24:43.304Z,99488.47
2023-01-29T09:27:10.867Z,99482.69
2023-01-29T09:29:37.729Z,99496.13
2023-01-29T09:32:05.031Z,99498.47
2023-01-29T09:34:33.654Z,99501.75
2023-01-29T09:37:00.238Z,99492.28
2023-01-29T09:39:26.990Z,99491.63
2023-01-29T09:42:00.409Z,99483.31
2023-01-29T09:44:47.432Z,99478.00
2023-01-29T09:47:16.229Z,99477.81
2023-01-29T09:49:47.312Z,99468.69
2023-01-29T09:52:35.423Z,99455.41
2023-01-29T09:55:29.381Z,99449.59
2023-01-29T09:58:01.525Z,99443.22
2023-01-29T10:00:40.512Z,99438.41
2023-01-29T10:03:26.009Z,99436.50
2023-01-29T10:06:30.164Z,99430.00
2023-01-29T10:08:59.765Z,99426.97
2023-01-29T10:11:44.842Z,99418.91
2023-01-29T10:14:53.845Z,99416.13
2023-01-29T10:17:44.279Z,99414.00
2023-01-29T10:20:55.138Z,99412.66
2023-01-29T10:23:29.442Z,99419.47
2023-01-29T10:25:56.069Z,99431.94
2023-01-29T10:28:29.442Z,99430.34
2023-01-29T10:31:12.432Z,99430.63
2023-01-29T10:34:02.491Z,99426.22
2023-01-29T10:36:36.487Z,99422.84
2023-01-29T10:39:03.155Z,99430.28
2023-01-29T10:41:38.477Z,99435.63
2023-01-29T10:44:44.097Z,99444.66
2023-01-29T10:47:26.125Z,99430.69
2023-01-29T10:50:15.054Z,99421.72
2023-01-29T10:52:50.602Z,99417.50
2023-01-29T10:55:39.805Z,99421.53
2023-01-29T10:58:31.884Z,99420.50
2023-01-29T11:00:58.739Z,99417.09
2023-01-29T11:03:33.467Z,99421.22
2023-01-29T11:06:04.562Z,99426.81
2023-01-29T11:08:43.362Z,99430.44
2023-01-29T11:11:17.864Z,99423.25
2023-01-29T11:14:08.934Z,99413.22
2023-01-29T11:16:43.543Z,99412.78
2023-01-29T11:19:10.708Z,99417.38
2023-01-29T11:21:57.635Z,99415.81
2023-01-29T11:24:24.885Z,99404.38
2023-01-29T11:26:58.519Z,99394.56
2023-01-29T11:29:39.968Z,99385.34
2023-01-29T11:32:34.361Z,99376.56
2023-01-29T11:35:02.175Z,99387.16
2023-01-29T11:37:39.910Z,99383.50
2023-01-29T11:40:19.051Z,99375.28
2023-01-29T11:42:46.053Z,99376.06
2023-01-29T11:45:25.000Z,99379.22
2023-01-29T11:47:56.059Z,99372.16
2023-01-29T11:50:25.539Z,99374.34
2023-01-29T11:52:52.333Z,99377.19
2023-01-29T11:55:22.030Z,99383.47
2023-01-29T11:57:51.682Z,99374.38
2023-01-29T12:00:27.036Z,99357.41
2023-01-29T12:03:05.239Z,99351.06
2023-01-29T12:05:31.780Z,99344.25
2023-01-29T12:08:00.779Z,99338.66
2023-01-29T12:10:35.480Z,99326.72
2023-01-29T12:13:11.100Z,99321.34
2023-01-29T12:15:38.889Z,99323.16
2023-01-29T12:18:30.391Z,99318.41
2023-01-29T12:21:05.739Z,99307.34
2023-01-29T12:23:57.396Z,99300.88
2023-01-29T12:26:27.902Z,99291.81
2023-01-29T12:29:15.902Z,99289.59
2023-01-29T12:31:50.502Z,99275.84
2023-01-29T12:34:19.768Z,99274.50
2023-01-29T12:37:31.230Z,99276.84
2023-01-29T12:39:57.759Z,99266.81
2023-01-29T12:42:24.509Z,99264.47
2023-01-29T12:44:55.446Z,99256.34
2023-01-29T12:47:31.824Z,99253.06
2023-01-29T12:50:03.437Z,99250.38
2023-01-29T12:52:54.467Z,99249.34
2023-01-29T12:55:32.271Z,99240.88
2023-01-29T12:58:01.152Z,99239.88
2023-01-29T13:00:48.671Z,99240.63
2023-01-29T13:03:29.537Z,99238.59
2023-01-29T13:06:19.547Z,99226.31
2023-01-29T13:08:54.211Z,99232.34
2023-01-29T13:11:27.140Z,99232.56
2023-01-29T13:14:04.444Z,99218.59
2023-01-29T13:16:37.871Z,99218.53
2023-01-29T13:19:15.295Z,99222.84
2023-01-29T13:21:43.822Z,99216.56
2023-01-29T13:24:11.875Z,99216.56
2023-01-29T13:26:39.163Z,99216.81
2023-01-29T13:29:06.109Z,99227.34
2023-01-29T13:31:38.966Z,99222.31
2023-01-29T13:34:28.333Z,99217.84
2023-01-29T13:36:56.929Z,99226.84
2023-01-29T13:39:27.683Z,99226.59
2023-01-29T13:41:55.536Z,99223.34
2023-01-29T13:44:24.284Z,99228.34
2023-01-29T13:46:59.185Z,99217.47
2023-01-29T13:49:37.808Z,99216.41
2023-01-29T13:52:28.624Z,99228.09
2023-01-29T13:54:58.279Z,99227.03
2023-01-29T13:57:43.696Z,99227.63
2023-01-29T14:00:22.530Z,99224.09
2023-01-29T14:02:54.930Z,99228.88
2023-01-29T14:05:30.646Z,99219.31
2023-01-29T14:08:06.106Z,99219.56
2023-01-29T14:10:33.935Z,99212.84
2023-01-29T14:13:03.439Z,99214.84
2023-01-29T14:15:34.974Z,99222.09
2023-01-29T14:18:10.849Z,99218.31
2023-01-29T14:20:46.098Z,99218.81
2023-01-29T14:23:41.967Z,99216.59
2023-01-29T14:26:28.933Z,99212.31
2023-01-29T14:29:03.223Z,99201.22
2023-01-29T14:31:52.368Z,99201.47
2023-01-29T14:34:31.550Z,99196.28
2023-01-29T14:37:04.014Z,99196.81
2023-01-29T14:39:51.645Z,99198.28
2023-01-29T14:42:29.017Z,99199.31
2023-01-29T14:44:55.434Z,99191.03
2023-01-29T14:47:28.044Z,99196.06
2023-01-29T14:49:58.002Z,99190.75
2023-01-29T14:52:37.761Z,99192.06
2023-01-29T14:55:09.153Z,99188.53
2023-01-29T14:57:35.628Z,99184.75
2023-01-29T15:00:19.165Z,99186.06
2023-01-29T15:02:46.329Z,99192.06
2023-01-29T15:05:20.929Z,99195.59
2023-01-29T15:07:52.467Z,99200.31
2023-01-29T15:10:23.021Z,99207.22
2023-01-29T15:13:07.876Z,99204.06
2023-01-29T15:15:52.657Z,99204.06
2023-01-29T15:18:23.490Z,99197.56
2023-01-29T15:20:49.995Z,99199.06
2023-01-29T15:23:25.751Z,99198.22
2023-01-29T15:25:54.668Z,99196.56
2023-01-29T15:28:21.324Z,99200.22
2023-01-29T15:30:53.521Z,99190.81
2023-01-29T15:33:20.538Z,99198.31
2023-01-29T15:35:49.874Z,99200.00
2023-01-29T15:38:21.560Z,99191.81
2023-01-29T15:40:54.757Z,99197.31
2023-01-29T15:43:22.524Z,99199.53
2023-01-29T15:45:49.537Z,99203.53
2023-01-29T15:48:33.116Z,99200.72
2023-01-29T15:50:59.927Z,99201.50
2023-01-29T15:53:35.531Z,99193.22
2023-01-29T15:56:02.233Z,99195.63
2023-01-29T15:58:29.683Z,99201.44
2023-01-29T16:00:56.794Z,99201.22
2023-01-29T16:03:24.019Z,99190.19
2023-01-29T16:05:51.948Z,99188.66
2023-01-29T16:08:18.836Z,99188.66
2023-01-29T16:10:45.875Z,99188.38
2023-01-29T16:13:19.157Z,99189.31
2023-01-29T16:16:01.877Z,99188.25
2023-01-29T16:18:35.961Z,99184.22
2023-01-29T16:21:12.887Z,99184.69
2023-01-29T16:23:45.099Z,99181.16
2023-01-29T16:26:15.974Z,99180.06
2023-01-29T16:28:42.965Z,99178.03
2023-01-29T16:31:10.530Z,99189.19
2023-01-29T16:33:37.606Z,99187.19
2023-01-29T16:36:06.100Z,99200.63
2023-01-29T16:38:32.847Z,99202.91
2023-01-29T16:41:06.715Z,99198.16
2023-01-29T16:43:42.183Z,99195.91
2023-01-29T16:46:18.689Z,99196.34
2023-01-29T16:48:45.369Z,99198.72
2023-01-29T16:51:26.569Z,99198.00
2023-01-29T16:54:01.176Z,99201.91
2023-01-29T16:56:30.465Z,99207.03
2023-01-29T16:58:57.299Z,99206.88
2023-01-29T17:01:24.936Z,99205.09
2023-01-29T17:04:07.619Z,99209.41
2023-01-29T17:06:34.535Z,99208.00
2023-01-29T17:09:01.188Z,99216.16
2023-01-29T17:11:36.566Z,99215.09
2023-01-29T17:14:05.325Z,99209.63
2023-01-29T17:16:34.550Z,99209.16
2023-01-29T17:19:01.329Z,99216.06
2023-01-29T17:21:28.942Z,99206.25
2023-01-29T17:23:55.545Z,99208.69
2023-01-29T17:26:23.197Z,99201.09
2023-01-29T17:28:50.620Z,99208.00
2023-01-29T17:31:17.268Z,99199.06
2023-01-29T17:33:44.661Z,99198.53
2023-01-29T17:36:14.528Z,99192.03
2023-01-29T17:38:41.416Z,99193.53
2023-01-29T17:41:24.887Z,99192.53
2023-01-29T17:43:51.818Z,99196.25
2023-01-29T17:46:18.671Z,99189.00
2023-01-29T17:48:45.651Z,99191.63
2023-01-29T17:51:16.630Z,99194.19
2023-01-29T17:53:46.225Z,99190.50
2023-01-29T17:56:27.428Z,99188.34
2023-01-29T17:58:54.039Z,99190.97
2023-01-29T18:01:20.683Z,99189.28
2023-01-29T18:03:47.304Z,99195.69
2023-01-29T18:06:26.208Z,99194.19
2023-01-29T18:08:52.810Z,99196.47
2023-01-29T18:11:19.380Z,99190.50
2023-01-29T18:13:46.239Z,99188.09
2023-01-29T18:16:12.779Z,99183.78
2023-01-29T18:18:40.376Z,99188.78
2023-01-29T18:21:07.936Z,99191.31
2023-01-29T18:23:34.562Z,99183.78
2023-01-29T18:26:01.220Z,99181.78
2023-01-29T18:28:27.799Z,99180.28
2023-01-29T18:30:54.372Z,99178.50
2023-01-29T18:33:21.068Z,99184.53
2023-01-29T18:35:50.528Z,99183.44
2023-01-29T18:38:17.435Z,99183.19
2023-01-29T18:40:44.076Z,99179.47
2023-01-29T18:43:10.594Z,99177.75
2023-01-29T18:45:37.220Z,99177.97
2023-01-29T18:48:03.917Z,99180.63
2023-01-29T18:50:30.665Z,99174.16
2023-01-29T18:52:57.286Z,99174.41
2023-01-29T18:55:24.455Z,99178.16
2023-01-29T18:58:33.980Z,99178.94
2023-01-29T19:00:41.979Z,99185.91
2023-01-29T19:03:08.519Z,99185.84
2023-01-29T19:05:35.098Z,99183.31
2023-01-29T19:08:01.956Z,99191.00
2023-01-29T19:10:28.523Z,99192.06
2023-01-29T19:12:55.042Z,99201.41
2023-01-29T19:15:22.717Z,99203.88
2023-01-29T19:17:50.546Z,99195.09
2023-01-29T19:20:17.644Z,99202.38
2023-01-29T19:22:44.231Z,99206.88
2023-01-29T19:25:10.869Z,99203.25
2023-01-29T19:27:37.714Z,99207.94
2023-01-29T19:30:05.807Z,99208.78
2023-01-29T19:32:32.715Z,99208.22
2023-01-29T19:34:59.271Z,99217.19
2023-01-29T19:37:26.062Z,99216.44
2023-01-29T19:39:53.818Z,99213.63
2023-01-29T19:42:20.942Z,99213.81
2023-01-29T19:44:47.717Z,99205.75
2023-01-29T19:47:14.299Z,99211.09
2023-01-29T19:49:40.901Z,99211.38
2023-01-29T19:52:14.889Z,99216.28
2023-01-29T19:54:46.596Z,99203.38
2023-01-29T19:57:13.257Z,99209.31
2023-01-29T19:59:39.879Z,99216.69
2023-01-29T20:02:06.603Z,99215.19
2023-01-29T20:04:33.283Z,99213.69
2023-01-29T20:07:00.324Z,99208.56
2023-01-29T20:09:29.341Z,99208.41
2023-01-29T20:11:55.853Z,99205.75
2023-01-29T20:14:22.486Z,99199.53
2023-01-29T20:16:49.025Z,99199.84
2023-01-29T20:19:16.344Z,99195.19
2023-01-29T20:21:45.781Z,99201.63
2023-01-29T20:24:12.957Z,99195.75
2023-01-29T20:26:39.811Z,99195.47
2023-01-29T20:29:06.570Z,99190.00
2023-01-29T20:31:33.274Z,99195.84
2023-01-29T20:33:59.873Z,99188.81
2023-01-29T20:36:26.473Z,99183.41
2023-01-29T20:38:53.034Z,99189.97
2023-01-29T20:41:19.909Z,99172.94
2023-01-29T20:43:47.056Z,99178.41
2023-01-29T20:46:13.951Z,99177.91
2023-01-29T20:48:42.050Z,99158.91
2023-01-29T20:51:13.038Z,99151.72
2023-01-29T20:53:44.268Z,99148.97
2023-01-29T20:56:11.403Z,99137.41
2023-01-29T20:58:38.180Z,99146.47
2023-01-29T21:01:11.917Z,99138.59
2023-01-29T21:03:39.413Z,99143.09
2023-01-29T21:06:06.791Z,99133.91
2023-01-29T21:08:33.556Z,99132.00
2023-01-29T21:11:00.135Z,99128.59
2023-01-29T21:13:26.700Z,99128.41
2023-01-29T21:15:53.303Z,99129.38
2023-01-29T21:18:26.124Z,99130.91
2023-01-29T21:21:19.173Z,99131.81
2023-01-29T21:24:18.213Z,99137.69
2023-01-29T21:26:51.666Z,99142.63
2023-01-29T21:29:31.363Z,99149.09
2023-01-29T21:32:17.539Z,99153.69
2023-01-29T21:35:08.113Z,99151.22
2023-01-29T21:37:45.733Z,99153.69
2023-01-29T21:40:47.456Z,99154.63
2023-01-29T21:43:23.381Z,99149.22
2023-01-29T21:46:16.609Z,99154.25
2023-01-29T21:48:53.560Z,99144.72
2023-01-29T21:51:27.631Z,99145.38
2023-01-29T21:54:07.070Z,99147.00
2023-01-29T21:56:48.865Z,99137.41
2023-01-29T21:59:41.505Z,99138.25
2023-01-29T22:02:17.574Z,99135.56
2023-01-29T22:04:53.006Z,99133.94
2023-01-29T22:07:24.331Z,99141.16
2023-01-29T22:09:56.726Z,99133.00
2023-01-29T22:12:30.689Z,99137.53
2023-01-29T22:15:11.936Z,99138.25
2023-01-29T22:17:57.897Z,99146.34
2023-01-29T22:20:31.404Z,99140.91
2023-01-29T22:23:18.109Z,99142.31
2023-01-29T22:26:08.524Z,99140.53
2023-01-29T22:28:41.914Z,99141.38
2023-01-29T22:31:13.766Z,99139.31
2023-01-29T22:34:22.147Z,99134.22
2023-01-29T22:37:01.957Z,99123.28
2023-01-29T22:39:44.354Z,99126.97
2023-01-29T22:42:17.494Z,99126.31
2023-01-29T22:44:57.979Z,99106.06
2023-01-29T22:47:39.156Z,99100.38
2023-01-29T22:50:07.530Z,99088.88
2023-01-29T22:52:43.593Z,99077.28
2023-01-29T22:55:18.243Z,99074.53
2023-01-29T22:58:15.374Z,99070.13
2023-01-29T23:01:04.662Z,99060.78
2023-01-29T23:04:06.844Z,99058.41
2023-01-29T23:06:48.604Z,99048.59
2023-01-29T23:09:23.346Z,99033.41
2023-01-29T23:12:02.721Z,99030.44
2023-01-29T23:14:42.418Z,99035.78
2023-01-29T23:17:18.075Z,99048.25
2023-01-29T23:20:08.053Z,99048.53
2023-01-29T23:23:00.228Z,99042.94
2023-01-29T23:25:54.438Z,99036.69
2023-01-29T23:28:20.983Z,99025.59
2023-01-29T23:30:47.903Z,99030.53
2023-01-29T23:33:14.762Z,99020.53
2023-01-29T23:35:41.687Z,99026.56
2023-01-29T23:38:08.208Z,99036.41
2023-01-29T23:40:34.744Z,99026.03
2023-01-29T23:43:01.424Z,99036.50
2023-01-29T23:45:27.953Z,99028.06
2023-01-29T23:47:54.452Z,99025.22
2023-01-29T23:50:20.975Z,99024.50
2023-01-29T23:52:47.517Z,99015.91
2023-01-29T23:55:14.033Z,99006.59
2023-01-29T23:57:40.590Z,99001.13
